sensor_id;sensor_type;location;lat;lon;timestamp;P1;durP1;ratioP1;P2;durP2;ratioP2
59728;SDS011;45588;51.598;5.618;2024-01-25T00:02:15;51.10;;;8.23;;
59728;SDS011;45588;51.598;5.618;2024-01-25T00:04:40;50.25;;;6.65;;
59728;SDS011;45588;51.598;5.618;2024-01-25T00:07:07;83.40;;;16.13;;
59728;SDS011;45588;51.598;5.618;2024-01-25T00:09:32;48.85;;;7.43;;
59728;SDS011;45588;51.598;5.618;2024-01-25T00:11:57;55.22;;;9.27;;
59728;SDS011;45588;51.598;5.618;2024-01-25T00:14:23;55.95;;;7.35;;
59728;SDS011;45588;51.598;5.618;2024-01-25T00:16:48;48.50;;;6.67;;
59728;SDS011;45588;51.598;5.618;2024-01-25T00:19:13;48.80;;;7.35;;
59728;SDS011;45588;51.598;5.618;2024-01-25T00:21:42;48.13;;;7.70;;
59728;SDS011;45588;51.598;5.618;2024-01-25T00:24:07;45.70;;;8.20;;
59728;SDS011;45588;51.598;5.618;2024-01-25T00:26:32;38.58;;;7.28;;
59728;SDS011;45588;51.598;5.618;2024-01-25T00:28:58;43.97;;;7.63;;
59728;SDS011;45588;51.598;5.618;2024-01-25T00:31:23;38.87;;;6.93;;
59728;SDS011;45588;51.598;5.618;2024-01-25T00:33:48;48.58;;;9.30;;
59728;SDS011;45588;51.598;5.618;2024-01-25T00:36:13;51.95;;;7.60;;
59728;SDS011;45588;51.598;5.618;2024-01-25T00:38:39;50.92;;;8.82;;
59728;SDS011;45588;51.598;5.618;2024-01-25T00:41:04;49.03;;;8.02;;
59728;SDS011;45588;51.598;5.618;2024-01-25T00:43:33;47.95;;;7.63;;
59728;SDS011;45588;51.598;5.618;2024-01-25T00:45:58;40.80;;;6.13;;
59728;SDS011;45588;51.598;5.618;2024-01-25T00:48:24;45.45;;;7.50;;
59728;SDS011;45588;51.598;5.618;2024-01-25T00:50:49;58.03;;;8.48;;
59728;SDS011;45588;51.598;5.618;2024-01-25T00:53:14;52.05;;;5.57;;
59728;SDS011;45588;51.598;5.618;2024-01-25T00:55:40;64.22;;;7.47;;
59728;SDS011;45588;51.598;5.618;2024-01-25T00:58:06;39.50;;;6.43;;
59728;SDS011;45588;51.598;5.618;2024-01-25T01:00:31;39.55;;;8.05;;
59728;SDS011;45588;51.598;5.618;2024-01-25T01:02:59;39.97;;;6.28;;
59728;SDS011;45588;51.598;5.618;2024-01-25T01:05:27;49.10;;;7.83;;
59728;SDS011;45588;51.598;5.618;2024-01-25T01:07:52;43.40;;;7.50;;
59728;SDS011;45588;51.598;5.618;2024-01-25T01:10:18;53.13;;;8.32;;
59728;SDS011;45588;51.598;5.618;2024-01-25T01:12:43;45.03;;;7.25;;
59728;SDS011;45588;51.598;5.618;2024-01-25T01:15:08;49.17;;;7.22;;
59728;SDS011;45588;51.598;5.618;2024-01-25T01:17:33;46.42;;;7.75;;
59728;SDS011;45588;51.598;5.618;2024-01-25T01:19:58;29.30;;;5.60;;
59728;SDS011;45588;51.598;5.618;2024-01-25T01:22:24;47.55;;;8.52;;
59728;SDS011;45588;51.598;5.618;2024-01-25T01:24:49;59.72;;;8.85;;
59728;SDS011;45588;51.598;5.618;2024-01-25T01:27:14;50.20;;;7.77;;
59728;SDS011;45588;51.598;5.618;2024-01-25T01:29:39;42.50;;;7.70;;
59728;SDS011;45588;51.598;5.618;2024-01-25T01:32:06;48.38;;;7.30;;
59728;SDS011;45588;51.598;5.618;2024-01-25T01:34:31;43.33;;;6.60;;
59728;SDS011;45588;51.598;5.618;2024-01-25T01:36:56;46.40;;;7.70;;
59728;SDS011;45588;51.598;5.618;2024-01-25T01:39:21;37.47;;;7.50;;
59728;SDS011;45588;51.598;5.618;2024-01-25T01:41:47;35.65;;;7.35;;
59728;SDS011;45588;51.598;5.618;2024-01-25T01:44:13;56.42;;;8.60;;
59728;SDS011;45588;51.598;5.618;2024-01-25T01:46:38;50.75;;;7.05;;
59728;SDS011;45588;51.598;5.618;2024-01-25T01:49:05;41.58;;;6.85;;
59728;SDS011;45588;51.598;5.618;2024-01-25T01:51:31;50.05;;;7.82;;
59728;SDS011;45588;51.598;5.618;2024-01-25T01:53:57;48.22;;;8.43;;
59728;SDS011;45588;51.598;5.618;2024-01-25T01:56:23;44.10;;;7.22;;
59728;SDS011;45588;51.598;5.618;2024-01-25T01:58:49;37.08;;;5.97;;
59728;SDS011;45588;51.598;5.618;2024-01-25T02:01:14;61.60;;;8.88;;
59728;SDS011;45588;51.598;5.618;2024-01-25T02:03:39;46.60;;;8.55;;
59728;SDS011;45588;51.598;5.618;2024-01-25T02:06:05;47.58;;;9.98;;
59728;SDS011;45588;51.598;5.618;2024-01-25T02:08:31;32.65;;;6.30;;
59728;SDS011;45588;51.598;5.618;2024-01-25T02:10:56;57.63;;;7.93;;
59728;SDS011;45588;51.598;5.618;2024-01-25T02:13:22;47.85;;;8.95;;
59728;SDS011;45588;51.598;5.618;2024-01-25T02:15:47;64.80;;;8.63;;
59728;SDS011;45588;51.598;5.618;2024-01-25T02:18:12;46.40;;;7.75;;
59728;SDS011;45588;51.598;5.618;2024-01-25T02:20:37;47.80;;;8.65;;
59728;SDS011;45588;51.598;5.618;2024-01-25T02:23:03;43.78;;;6.72;;
59728;SDS011;45588;51.598;5.618;2024-01-25T02:25:28;49.58;;;8.63;;
59728;SDS011;45588;51.598;5.618;2024-01-25T02:27:53;42.97;;;6.95;;
59728;SDS011;45588;51.598;5.618;2024-01-25T02:30:18;46.67;;;6.50;;
59728;SDS011;45588;51.598;5.618;2024-01-25T02:32:43;47.15;;;6.55;;
59728;SDS011;45588;51.598;5.618;2024-01-25T02:35:09;44.60;;;7.05;;
59728;SDS011;45588;51.598;5.618;2024-01-25T02:37:34;31.48;;;7.07;;
59728;SDS011;45588;51.598;5.618;2024-01-25T02:39:59;46.42;;;7.32;;
59728;SDS011;45588;51.598;5.618;2024-01-25T02:42:24;49.63;;;8.07;;
59728;SDS011;45588;51.598;5.618;2024-01-25T02:44:50;48.63;;;10.47;;
59728;SDS011;45588;51.598;5.618;2024-01-25T02:47:15;54.83;;;7.38;;
59728;SDS011;45588;51.598;5.618;2024-01-25T02:49:40;51.05;;;7.53;;
59728;SDS011;45588;51.598;5.618;2024-01-25T02:52:05;47.50;;;8.68;;
59728;SDS011;45588;51.598;5.618;2024-01-25T02:54:34;43.60;;;6.50;;
59728;SDS011;45588;51.598;5.618;2024-01-25T02:57:02;48.55;;;6.05;;
59728;SDS011;45588;51.598;5.618;2024-01-25T02:59:27;42.53;;;7.85;;
59728;SDS011;45588;51.598;5.618;2024-01-25T03:01:53;36.50;;;7.57;;
59728;SDS011;45588;51.598;5.618;2024-01-25T03:04:18;35.42;;;6.95;;
59728;SDS011;45588;51.598;5.618;2024-01-25T03:06:44;44.87;;;6.93;;
59728;SDS011;45588;51.598;5.618;2024-01-25T03:09:09;45.45;;;7.07;;
59728;SDS011;45588;51.598;5.618;2024-01-25T03:11:34;58.03;;;7.15;;
59728;SDS011;45588;51.598;5.618;2024-01-25T03:13:59;69.57;;;7.57;;
59728;SDS011;45588;51.598;5.618;2024-01-25T03:16:24;54.97;;;10.65;;
59728;SDS011;45588;51.598;5.618;2024-01-25T03:18:50;50.10;;;7.43;;
59728;SDS011;45588;51.598;5.618;2024-01-25T03:21:15;46.50;;;7.22;;
59728;SDS011;45588;51.598;5.618;2024-01-25T03:23:40;64.65;;;9.85;;
59728;SDS011;45588;51.598;5.618;2024-01-25T03:26:05;63.65;;;8.88;;
59728;SDS011;45588;51.598;5.618;2024-01-25T03:28:31;44.53;;;7.20;;
59728;SDS011;45588;51.598;5.618;2024-01-25T03:30:56;44.80;;;7.38;;
59728;SDS011;45588;51.598;5.618;2024-01-25T03:33:21;56.13;;;6.87;;
59728;SDS011;45588;51.598;5.618;2024-01-25T03:35:46;40.75;;;5.82;;
59728;SDS011;45588;51.598;5.618;2024-01-25T03:38:12;50.38;;;6.55;;
59728;SDS011;45588;51.598;5.618;2024-01-25T03:40:39;39.45;;;6.32;;
59728;SDS011;45588;51.598;5.618;2024-01-25T03:43:04;58.63;;;8.15;;
59728;SDS011;45588;51.598;5.618;2024-01-25T03:45:29;55.73;;;8.77;;
59728;SDS011;45588;51.598;5.618;2024-01-25T03:47:55;37.38;;;6.32;;
59728;SDS011;45588;51.598;5.618;2024-01-25T03:50:20;49.13;;;7.85;;
59728;SDS011;45588;51.598;5.618;2024-01-25T03:52:45;43.27;;;6.80;;
59728;SDS011;45588;51.598;5.618;2024-01-25T03:55:10;42.53;;;8.53;;
59728;SDS011;45588;51.598;5.618;2024-01-25T03:57:35;49.20;;;7.60;;
59728;SDS011;45588;51.598;5.618;2024-01-25T04:00:01;60.05;;;8.13;;
59728;SDS011;45588;51.598;5.618;2024-01-25T04:02:26;56.83;;;8.00;;
59728;SDS011;45588;51.598;5.618;2024-01-25T04:04:51;47.38;;;9.30;;
59728;SDS011;45588;51.598;5.618;2024-01-25T04:07:17;56.90;;;8.50;;
59728;SDS011;45588;51.598;5.618;2024-01-25T04:09:42;38.20;;;7.60;;
59728;SDS011;45588;51.598;5.618;2024-01-25T04:12:07;51.75;;;7.88;;
59728;SDS011;45588;51.598;5.618;2024-01-25T04:14:32;46.20;;;7.47;;
59728;SDS011;45588;51.598;5.618;2024-01-25T04:16:57;43.20;;;6.43;;
59728;SDS011;45588;51.598;5.618;2024-01-25T04:19:24;34.22;;;7.95;;
59728;SDS011;45588;51.598;5.618;2024-01-25T04:21:49;32.42;;;5.90;;
59728;SDS011;45588;51.598;5.618;2024-01-25T04:24:14;51.38;;;7.57;;
59728;SDS011;45588;51.598;5.618;2024-01-25T04:26:39;38.95;;;6.22;;
59728;SDS011;45588;51.598;5.618;2024-01-25T04:29:04;49.33;;;7.70;;
59728;SDS011;45588;51.598;5.618;2024-01-25T04:31:31;41.22;;;7.22;;
59728;SDS011;45588;51.598;5.618;2024-01-25T04:33:56;46.00;;;7.40;;
59728;SDS011;45588;51.598;5.618;2024-01-25T04:36:21;40.72;;;7.97;;
59728;SDS011;45588;51.598;5.618;2024-01-25T04:38:46;38.95;;;6.30;;
59728;SDS011;45588;51.598;5.618;2024-01-25T04:41:11;44.95;;;7.63;;
59728;SDS011;45588;51.598;5.618;2024-01-25T04:43:37;28.93;;;6.13;;
59728;SDS011;45588;51.598;5.618;2024-01-25T04:46:02;42.60;;;6.57;;
59728;SDS011;45588;51.598;5.618;2024-01-25T04:48:28;49.40;;;8.55;;
59728;SDS011;45588;51.598;5.618;2024-01-25T04:50:53;41.58;;;7.43;;
59728;SDS011;45588;51.598;5.618;2024-01-25T04:53:18;49.83;;;7.45;;
59728;SDS011;45588;51.598;5.618;2024-01-25T04:55:43;46.55;;;6.95;;
59728;SDS011;45588;51.598;5.618;2024-01-25T04:58:09;35.50;;;5.57;;
59728;SDS011;45588;51.598;5.618;2024-01-25T05:00:34;40.95;;;7.25;;
59728;SDS011;45588;51.598;5.618;2024-01-25T05:03:00;37.70;;;7.95;;
59728;SDS011;45588;51.598;5.618;2024-01-25T05:05:25;102.25;;;19.10;;
59728;SDS011;45588;51.598;5.618;2024-01-25T05:07:51;61.20;;;8.27;;
59728;SDS011;45588;51.598;5.618;2024-01-25T05:10:16;43.07;;;8.67;;
59728;SDS011;45588;51.598;5.618;2024-01-25T05:12:41;48.27;;;6.60;;
59728;SDS011;45588;51.598;5.618;2024-01-25T05:15:06;49.47;;;8.38;;
59728;SDS011;45588;51.598;5.618;2024-01-25T05:17:31;50.10;;;8.07;;
59728;SDS011;45588;51.598;5.618;2024-01-25T05:19:57;53.42;;;8.02;;
59728;SDS011;45588;51.598;5.618;2024-01-25T05:22:22;52.50;;;7.65;;
59728;SDS011;45588;51.598;5.618;2024-01-25T05:24:48;38.47;;;8.85;;
59728;SDS011;45588;51.598;5.618;2024-01-25T05:27:13;35.92;;;6.70;;
59728;SDS011;45588;51.598;5.618;2024-01-25T05:29:38;51.38;;;8.73;;
59728;SDS011;45588;51.598;5.618;2024-01-25T05:32:03;46.90;;;7.90;;
59728;SDS011;45588;51.598;5.618;2024-01-25T05:34:28;40.65;;;7.63;;
59728;SDS011;45588;51.598;5.618;2024-01-25T05:36:54;53.40;;;8.13;;
59728;SDS011;45588;51.598;5.618;2024-01-25T05:39:19;50.05;;;8.30;;
59728;SDS011;45588;51.598;5.618;2024-01-25T05:41:44;52.88;;;7.75;;
59728;SDS011;45588;51.598;5.618;2024-01-25T05:44:11;54.80;;;8.82;;
59728;SDS011;45588;51.598;5.618;2024-01-25T05:46:36;46.20;;;9.68;;
59728;SDS011;45588;51.598;5.618;2024-01-25T05:49:01;52.80;;;8.93;;
59728;SDS011;45588;51.598;5.618;2024-01-25T05:51:26;38.60;;;7.50;;
59728;SDS011;45588;51.598;5.618;2024-01-25T05:53:52;32.08;;;7.78;;
59728;SDS011;45588;51.598;5.618;2024-01-25T05:56:17;46.38;;;9.32;;
59728;SDS011;45588;51.598;5.618;2024-01-25T05:58:42;50.90;;;8.23;;
59728;SDS011;45588;51.598;5.618;2024-01-25T06:01:08;46.08;;;8.70;;
59728;SDS011;45588;51.598;5.618;2024-01-25T06:03:33;34.25;;;7.10;;
59728;SDS011;45588;51.598;5.618;2024-01-25T06:05:58;30.15;;;6.78;;
59728;SDS011;45588;51.598;5.618;2024-01-25T06:08:24;44.10;;;6.68;;
59728;SDS011;45588;51.598;5.618;2024-01-25T06:10:49;41.60;;;7.28;;
59728;SDS011;45588;51.598;5.618;2024-01-25T06:13:15;34.47;;;7.18;;
59728;SDS011;45588;51.598;5.618;2024-01-25T06:15:40;44.03;;;7.55;;
59728;SDS011;45588;51.598;5.618;2024-01-25T06:18:05;53.72;;;8.52;;
59728;SDS011;45588;51.598;5.618;2024-01-25T06:20:30;39.72;;;6.65;;
59728;SDS011;45588;51.598;5.618;2024-01-25T06:22:55;46.45;;;8.05;;
59728;SDS011;45588;51.598;5.618;2024-01-25T06:25:21;49.33;;;9.70;;
59728;SDS011;45588;51.598;5.618;2024-01-25T06:27:47;32.58;;;8.70;;
59728;SDS011;45588;51.598;5.618;2024-01-25T06:30:13;45.67;;;9.00;;
59728;SDS011;45588;51.598;5.618;2024-01-25T06:32:38;37.25;;;6.25;;
59728;SDS011;45588;51.598;5.618;2024-01-25T06:35:04;49.28;;;9.35;;
59728;SDS011;45588;51.598;5.618;2024-01-25T06:37:29;43.53;;;8.30;;
59728;SDS011;45588;51.598;5.618;2024-01-25T06:39:54;46.63;;;7.35;;
59728;SDS011;45588;51.598;5.618;2024-01-25T06:42:19;49.47;;;7.97;;
59728;SDS011;45588;51.598;5.618;2024-01-25T06:44:45;48.53;;;7.70;;
59728;SDS011;45588;51.598;5.618;2024-01-25T06:47:10;38.20;;;7.70;;
59728;SDS011;45588;51.598;5.618;2024-01-25T06:49:35;51.55;;;8.98;;
59728;SDS011;45588;51.598;5.618;2024-01-25T06:52:00;56.03;;;9.23;;
59728;SDS011;45588;51.598;5.618;2024-01-25T06:54:25;67.60;;;10.73;;
59728;SDS011;45588;51.598;5.618;2024-01-25T06:56:51;58.78;;;11.15;;
59728;SDS011;45588;51.598;5.618;2024-01-25T06:59:16;53.50;;;9.15;;
59728;SDS011;45588;51.598;5.618;2024-01-25T07:01:42;42.78;;;7.20;;
59728;SDS011;45588;51.598;5.618;2024-01-25T07:04:07;54.47;;;9.02;;
59728;SDS011;45588;51.598;5.618;2024-01-25T07:06:32;39.73;;;8.07;;
59728;SDS011;45588;51.598;5.618;2024-01-25T07:08:57;51.42;;;9.05;;
59728;SDS011;45588;51.598;5.618;2024-01-25T07:11:22;49.65;;;10.70;;
59728;SDS011;45588;51.598;5.618;2024-01-25T07:13:48;52.08;;;8.98;;
59728;SDS011;45588;51.598;5.618;2024-01-25T07:16:13;37.50;;;9.18;;
59728;SDS011;45588;51.598;5.618;2024-01-25T07:18:38;45.85;;;8.38;;
59728;SDS011;45588;51.598;5.618;2024-01-25T07:21:04;49.28;;;11.00;;
59728;SDS011;45588;51.598;5.618;2024-01-25T07:23:29;44.15;;;13.65;;
59728;SDS011;45588;51.598;5.618;2024-01-25T07:25:55;50.80;;;10.15;;
59728;SDS011;45588;51.598;5.618;2024-01-25T07:28:20;58.00;;;12.52;;
59728;SDS011;45588;51.598;5.618;2024-01-25T07:30:48;42.00;;;10.15;;
59728;SDS011;45588;51.598;5.618;2024-01-25T07:33:14;45.28;;;10.45;;
59728;SDS011;45588;51.598;5.618;2024-01-25T07:35:39;35.40;;;8.63;;
59728;SDS011;45588;51.598;5.618;2024-01-25T07:38:10;39.72;;;10.32;;
59728;SDS011;45588;51.598;5.618;2024-01-25T07:40:35;50.00;;;8.82;;
59728;SDS011;45588;51.598;5.618;2024-01-25T07:43:01;42.80;;;9.97;;
59728;SDS011;45588;51.598;5.618;2024-01-25T07:45:26;53.85;;;9.95;;
59728;SDS011;45588;51.598;5.618;2024-01-25T07:47:51;43.08;;;11.52;;
59728;SDS011;45588;51.598;5.618;2024-01-25T07:50:16;49.40;;;10.65;;
59728;SDS011;45588;51.598;5.618;2024-01-25T07:52:42;43.17;;;10.50;;
59728;SDS011;45588;51.598;5.618;2024-01-25T07:55:07;44.97;;;12.02;;
59728;SDS011;45588;51.598;5.618;2024-01-25T07:57:32;39.05;;;11.73;;
59728;SDS011;45588;51.598;5.618;2024-01-25T07:59:57;53.38;;;11.48;;
59728;SDS011;45588;51.598;5.618;2024-01-25T08:02:23;55.92;;;11.77;;
59728;SDS011;45588;51.598;5.618;2024-01-25T08:04:48;51.38;;;11.27;;
59728;SDS011;45588;51.598;5.618;2024-01-25T08:07:13;69.18;;;13.82;;
59728;SDS011;45588;51.598;5.618;2024-01-25T08:09:38;55.33;;;12.98;;
59728;SDS011;45588;51.598;5.618;2024-01-25T08:12:03;67.45;;;13.13;;
59728;SDS011;45588;51.598;5.618;2024-01-25T08:14:29;56.30;;;12.50;;
59728;SDS011;45588;51.598;5.618;2024-01-25T08:16:54;49.17;;;11.35;;
59728;SDS011;45588;51.598;5.618;2024-01-25T08:19:20;60.22;;;13.30;;
59728;SDS011;45588;51.598;5.618;2024-01-25T08:21:46;59.83;;;10.18;;
59728;SDS011;45588;51.598;5.618;2024-01-25T08:24:11;46.08;;;11.50;;
59728;SDS011;45588;51.598;5.618;2024-01-25T08:26:36;55.63;;;12.35;;
59728;SDS011;45588;51.598;5.618;2024-01-25T08:29:02;50.60;;;11.85;;
59728;SDS011;45588;51.598;5.618;2024-01-25T08:31:27;46.78;;;10.57;;
59728;SDS011;45588;51.598;5.618;2024-01-25T08:33:52;54.40;;;12.33;;
59728;SDS011;45588;51.598;5.618;2024-01-25T08:36:17;51.58;;;11.23;;
59728;SDS011;45588;51.598;5.618;2024-01-25T08:38:43;48.33;;;11.52;;
59728;SDS011;45588;51.598;5.618;2024-01-25T08:41:09;58.35;;;11.55;;
59728;SDS011;45588;51.598;5.618;2024-01-25T08:43:36;59.08;;;12.32;;
59728;SDS011;45588;51.598;5.618;2024-01-25T08:46:01;54.22;;;9.95;;
59728;SDS011;45588;51.598;5.618;2024-01-25T08:48:27;53.17;;;11.35;;
59728;SDS011;45588;51.598;5.618;2024-01-25T08:50:52;44.05;;;11.48;;
59728;SDS011;45588;51.598;5.618;2024-01-25T08:53:19;47.10;;;11.10;;
59728;SDS011;45588;51.598;5.618;2024-01-25T08:55:47;63.88;;;13.25;;
59728;SDS011;45588;51.598;5.618;2024-01-25T08:58:12;63.45;;;11.73;;
59728;SDS011;45588;51.598;5.618;2024-01-25T09:00:37;59.65;;;12.27;;
59728;SDS011;45588;51.598;5.618;2024-01-25T09:03:02;49.22;;;13.18;;
59728;SDS011;45588;51.598;5.618;2024-01-25T09:05:27;58.75;;;13.13;;
59728;SDS011;45588;51.598;5.618;2024-01-25T09:07:53;45.47;;;14.02;;
59728;SDS011;45588;51.598;5.618;2024-01-25T09:10:18;67.13;;;15.85;;
59728;SDS011;45588;51.598;5.618;2024-01-25T09:12:43;35.90;;;11.00;;
59728;SDS011;45588;51.598;5.618;2024-01-25T09:15:09;58.78;;;13.73;;
59728;SDS011;45588;51.598;5.618;2024-01-25T09:17:34;65.75;;;15.15;;
59728;SDS011;45588;51.598;5.618;2024-01-25T09:19:59;53.42;;;13.07;;
59728;SDS011;45588;51.598;5.618;2024-01-25T09:22:25;75.25;;;17.80;;
59728;SDS011;45588;51.598;5.618;2024-01-25T09:24:50;67.72;;;15.20;;
59728;SDS011;45588;51.598;5.618;2024-01-25T09:27:15;61.28;;;13.25;;
59728;SDS011;45588;51.598;5.618;2024-01-25T09:29:41;53.97;;;14.32;;
59728;SDS011;45588;51.598;5.618;2024-01-25T09:32:07;85.65;;;18.52;;
59728;SDS011;45588;51.598;5.618;2024-01-25T09:34:33;52.10;;;13.20;;
59728;SDS011;45588;51.598;5.618;2024-01-25T09:36:58;72.10;;;15.02;;
59728;SDS011;45588;51.598;5.618;2024-01-25T09:39:23;74.17;;;18.00;;
59728;SDS011;45588;51.598;5.618;2024-01-25T09:41:48;67.47;;;18.37;;
59728;SDS011;45588;51.598;5.618;2024-01-25T09:44:14;60.58;;;19.20;;
59728;SDS011;45588;51.598;5.618;2024-01-25T09:46:39;69.75;;;19.27;;
59728;SDS011;45588;51.598;5.618;2024-01-25T09:49:05;121.03;;;39.88;;
59728;SDS011;45588;51.598;5.618;2024-01-25T09:51:35;71.25;;;19.88;;
59728;SDS011;45588;51.598;5.618;2024-01-25T09:54:02;56.30;;;16.50;;
59728;SDS011;45588;51.598;5.618;2024-01-25T09:56:28;67.43;;;19.33;;
59728;SDS011;45588;51.598;5.618;2024-01-25T09:58:56;65.70;;;18.17;;
59728;SDS011;45588;51.598;5.618;2024-01-25T10:01:21;87.53;;;20.67;;
59728;SDS011;45588;51.598;5.618;2024-01-25T10:03:46;70.00;;;17.63;;
59728;SDS011;45588;51.598;5.618;2024-01-25T10:06:12;87.95;;;23.73;;
59728;SDS011;45588;51.598;5.618;2024-01-25T10:08:37;64.43;;;16.65;;
59728;SDS011;45588;51.598;5.618;2024-01-25T10:11:03;118.32;;;35.08;;
59728;SDS011;45588;51.598;5.618;2024-01-25T10:13:28;58.30;;;17.17;;
59728;SDS011;45588;51.598;5.618;2024-01-25T10:15:54;71.90;;;17.73;;
59728;SDS011;45588;51.598;5.618;2024-01-25T10:18:22;57.40;;;16.65;;
59728;SDS011;45588;51.598;5.618;2024-01-25T10:20:47;85.78;;;18.33;;
59728;SDS011;45588;51.598;5.618;2024-01-25T10:23:12;74.95;;;16.67;;
59728;SDS011;45588;51.598;5.618;2024-01-25T10:25:38;58.92;;;16.40;;
59728;SDS011;45588;51.598;5.618;2024-01-25T10:28:03;65.50;;;16.98;;
59728;SDS011;45588;51.598;5.618;2024-01-25T10:30:31;69.65;;;18.25;;
59728;SDS011;45588;51.598;5.618;2024-01-25T10:32:56;54.88;;;15.93;;
59728;SDS011;45588;51.598;5.618;2024-01-25T10:35:23;65.68;;;15.43;;
59728;SDS011;45588;51.598;5.618;2024-01-25T10:37:49;79.75;;;17.67;;
59728;SDS011;45588;51.598;5.618;2024-01-25T10:40:15;73.80;;;19.17;;
59728;SDS011;45588;51.598;5.618;2024-01-25T10:42:40;55.80;;;17.60;;
59728;SDS011;45588;51.598;5.618;2024-01-25T10:45:06;60.60;;;15.13;;
59728;SDS011;45588;51.598;5.618;2024-01-25T10:47:32;64.68;;;18.98;;
59728;SDS011;45588;51.598;5.618;2024-01-25T10:50:00;68.80;;;18.90;;
59728;SDS011;45588;51.598;5.618;2024-01-25T10:52:25;63.58;;;18.77;;
59728;SDS011;45588;51.598;5.618;2024-01-25T10:54:51;65.55;;;18.83;;
59728;SDS011;45588;51.598;5.618;2024-01-25T10:57:16;55.95;;;17.83;;
59728;SDS011;45588;51.598;5.618;2024-01-25T10:59:42;67.35;;;20.92;;
59728;SDS011;45588;51.598;5.618;2024-01-25T11:02:07;64.93;;;21.05;;
59728;SDS011;45588;51.598;5.618;2024-01-25T11:04:33;78.40;;;20.63;;
59728;SDS011;45588;51.598;5.618;2024-01-25T11:07:06;72.80;;;18.13;;
59728;SDS011;45588;51.598;5.618;2024-01-25T11:09:31;73.35;;;19.85;;
59728;SDS011;45588;51.598;5.618;2024-01-25T11:11:58;63.55;;;19.45;;
59728;SDS011;45588;51.598;5.618;2024-01-25T11:14:25;76.95;;;19.60;;
59728;SDS011;45588;51.598;5.618;2024-01-25T11:16:50;62.92;;;19.33;;
59728;SDS011;45588;51.598;5.618;2024-01-25T11:19:16;110.80;;;38.38;;
59728;SDS011;45588;51.598;5.618;2024-01-25T11:21:42;70.72;;;19.25;;
59728;SDS011;45588;51.598;5.618;2024-01-25T11:24:19;63.58;;;19.10;;
59728;SDS011;45588;51.598;5.618;2024-01-25T11:26:45;70.00;;;20.98;;
59728;SDS011;45588;51.598;5.618;2024-01-25T11:29:14;67.82;;;20.63;;
59728;SDS011;45588;51.598;5.618;2024-01-25T11:31:43;56.85;;;17.75;;
59728;SDS011;45588;51.598;5.618;2024-01-25T11:34:11;70.57;;;18.48;;
59728;SDS011;45588;51.598;5.618;2024-01-25T11:36:38;87.90;;;21.73;;
59728;SDS011;45588;51.598;5.618;2024-01-25T11:39:03;77.80;;;22.13;;
59728;SDS011;45588;51.598;5.618;2024-01-25T11:41:28;60.33;;;19.63;;
59728;SDS011;45588;51.598;5.618;2024-01-25T11:43:54;57.70;;;17.70;;
59728;SDS011;45588;51.598;5.618;2024-01-25T11:46:19;71.60;;;21.30;;
59728;SDS011;45588;51.598;5.618;2024-01-25T11:48:44;59.70;;;19.35;;
59728;SDS011;45588;51.598;5.618;2024-01-25T11:51:09;70.18;;;20.92;;
59728;SDS011;45588;51.598;5.618;2024-01-25T11:53:36;60.90;;;20.20;;
59728;SDS011;45588;51.598;5.618;2024-01-25T11:56:01;78.65;;;19.13;;
59728;SDS011;45588;51.598;5.618;2024-01-25T11:58:26;86.97;;;22.75;;
59728;SDS011;45588;51.598;5.618;2024-01-25T12:00:52;122.65;;;42.70;;
59728;SDS011;45588;51.598;5.618;2024-01-25T12:03:17;79.57;;;19.65;;
59728;SDS011;45588;51.598;5.618;2024-01-25T12:05:42;74.13;;;20.23;;
59728;SDS011;45588;51.598;5.618;2024-01-25T12:08:08;91.03;;;19.35;;
59728;SDS011;45588;51.598;5.618;2024-01-25T12:10:33;77.40;;;18.63;;
59728;SDS011;45588;51.598;5.618;2024-01-25T12:12:59;67.43;;;17.67;;
59728;SDS011;45588;51.598;5.618;2024-01-25T12:15:25;67.85;;;19.02;;
59728;SDS011;45588;51.598;5.618;2024-01-25T12:17:50;115.18;;;36.30;;
59728;SDS011;45588;51.598;5.618;2024-01-25T12:20:15;77.63;;;18.80;;
59728;SDS011;45588;51.598;5.618;2024-01-25T12:22:40;65.50;;;17.27;;
59728;SDS011;45588;51.598;5.618;2024-01-25T12:25:06;69.13;;;18.92;;
59728;SDS011;45588;51.598;5.618;2024-01-25T12:27:32;63.92;;;18.23;;
59728;SDS011;45588;51.598;5.618;2024-01-25T12:29:57;76.25;;;21.40;;
59728;SDS011;45588;51.598;5.618;2024-01-25T12:32:22;90.43;;;28.55;;
59728;SDS011;45588;51.598;5.618;2024-01-25T12:37:19;76.95;;;23.90;;
59728;SDS011;45588;51.598;5.618;2024-01-25T12:39:44;78.43;;;23.40;;
59728;SDS011;45588;51.598;5.618;2024-01-25T12:42:09;73.97;;;23.20;;
59728;SDS011;45588;51.598;5.618;2024-01-25T12:44:34;82.10;;;20.65;;
59728;SDS011;45588;51.598;5.618;2024-01-25T12:47:00;71.03;;;21.63;;
59728;SDS011;45588;51.598;5.618;2024-01-25T12:49:27;61.15;;;21.77;;
59728;SDS011;45588;51.598;5.618;2024-01-25T12:51:53;82.57;;;21.75;;
59728;SDS011;45588;51.598;5.618;2024-01-25T12:54:21;67.38;;;20.55;;
59728;SDS011;45588;51.598;5.618;2024-01-25T12:56:46;71.50;;;19.25;;
59728;SDS011;45588;51.598;5.618;2024-01-25T12:59:12;64.10;;;15.85;;
59728;SDS011;45588;51.598;5.618;2024-01-25T13:01:37;59.38;;;19.20;;
59728;SDS011;45588;51.598;5.618;2024-01-25T13:04:02;96.75;;;34.17;;
59728;SDS011;45588;51.598;5.618;2024-01-25T13:06:28;55.97;;;17.17;;
59728;SDS011;45588;51.598;5.618;2024-01-25T13:08:53;56.07;;;16.60;;
59728;SDS011;45588;51.598;5.618;2024-01-25T13:11:18;73.50;;;17.88;;
59728;SDS011;45588;51.598;5.618;2024-01-25T13:13:43;64.55;;;20.60;;
59728;SDS011;45588;51.598;5.618;2024-01-25T13:16:10;63.92;;;16.33;;
59728;SDS011;45588;51.598;5.618;2024-01-25T13:18:35;63.40;;;16.85;;
59728;SDS011;45588;51.598;5.618;2024-01-25T13:21:00;71.47;;;20.67;;
59728;SDS011;45588;51.598;5.618;2024-01-25T13:23:25;63.60;;;18.30;;
59728;SDS011;45588;51.598;5.618;2024-01-25T13:25:50;67.97;;;17.38;;
59728;SDS011;45588;51.598;5.618;2024-01-25T13:28:16;97.50;;;34.83;;
59728;SDS011;45588;51.598;5.618;2024-01-25T13:30:41;58.30;;;17.63;;
59728;SDS011;45588;51.598;5.618;2024-01-25T13:33:06;61.73;;;17.47;;
59728;SDS011;45588;51.598;5.618;2024-01-25T13:35:31;62.90;;;17.05;;
59728;SDS011;45588;51.598;5.618;2024-01-25T13:37:56;62.97;;;16.40;;
59728;SDS011;45588;51.598;5.618;2024-01-25T13:40:25;60.92;;;15.77;;
59728;SDS011;45588;51.598;5.618;2024-01-25T13:42:51;61.47;;;17.05;;
59728;SDS011;45588;51.598;5.618;2024-01-25T13:45:16;67.67;;;17.77;;
59728;SDS011;45588;51.598;5.618;2024-01-25T13:47:41;62.15;;;17.10;;
59728;SDS011;45588;51.598;5.618;2024-01-25T13:50:06;78.17;;;19.63;;
59728;SDS011;45588;51.598;5.618;2024-01-25T13:52:31;62.00;;;20.08;;
59728;SDS011;45588;51.598;5.618;2024-01-25T13:54:57;68.78;;;17.10;;
59728;SDS011;45588;51.598;5.618;2024-01-25T13:57:22;64.57;;;17.60;;
59728;SDS011;45588;51.598;5.618;2024-01-25T13:59:48;63.78;;;18.13;;
59728;SDS011;45588;51.598;5.618;2024-01-25T14:02:14;61.50;;;19.02;;
59728;SDS011;45588;51.598;5.618;2024-01-25T14:04:39;102.78;;;38.53;;
59728;SDS011;45588;51.598;5.618;2024-01-25T14:07:05;59.05;;;16.65;;
59728;SDS011;45588;51.598;5.618;2024-01-25T14:09:30;61.42;;;18.38;;
59728;SDS011;45588;51.598;5.618;2024-01-25T14:11:55;65.28;;;19.13;;
59728;SDS011;45588;51.598;5.618;2024-01-25T14:14:21;72.43;;;21.75;;
59728;SDS011;45588;51.598;5.618;2024-01-25T14:16:46;73.47;;;20.20;;
59728;SDS011;45588;51.598;5.618;2024-01-25T14:19:13;55.58;;;15.95;;
59728;SDS011;45588;51.598;5.618;2024-01-25T14:21:38;62.67;;;17.50;;